createdAt,value
2017-04-02T19:13:10.902Z,40.80
2017-04-02T19:14:08.673Z,40.80
2017-04-02T19:15:06.462Z,41.00
2017-04-02T19:16:04.237Z,41.00
2017-04-02T19:17:02.017Z,41.00
2017-04-02T19:17:59.795Z,41.00
2017-04-02T19:18:57.565Z,41.10
2017-04-02T19:19:56.079Z,40.90
2017-04-02T19:20:53.853Z,41.00
2017-04-02T19:21:51.641Z,41.00
2017-04-02T19:22:49.440Z,41.00
2017-04-02T19:23:47.251Z,41.10
2017-04-02T19:24:45.058Z,41.00
2017-04-02T19:25:42.981Z,41.10
2017-04-02T19:26:40.775Z,41.00
2017-04-02T19:27:38.560Z,41.10
2017-04-02T19:28:36.325Z,41.00
2017-04-02T19:29:34.097Z,41.00
2017-04-02T19:30:31.881Z,41.00
2017-04-02T19:31:29.669Z,41.20
2017-04-02T19:32:27.460Z,41.30
2017-04-02T19:33:25.260Z,41.30
2017-04-02T19:34:23.036Z,41.40
2017-04-02T19:35:20.817Z,41.30
2017-04-02T19:36:18.599Z,41.40
2017-04-02T19:37:16.363Z,41.50
2017-04-02T19:38:14.180Z,41.30
2017-04-02T19:39:12.097Z,41.70
2017-04-02T19:40:09.898Z,42.60
2017-04-02T19:41:07.692Z,43.00
2017-04-02T19:42:05.471Z,42.80
2017-04-02T19:43:03.309Z,42.70
2017-04-02T19:44:01.091Z,42.60
2017-04-02T19:44:59.364Z,42.50
2017-04-02T19:45:57.153Z,42.40
2017-04-02T19:46:54.961Z,42.40
2017-04-02T19:47:52.749Z,42.30
2017-04-02T19:48:50.525Z,42.40
2017-04-02T19:49:48.341Z,42.50
2017-04-02T19:50:46.198Z,42.40
2017-04-02T19:51:44.020Z,42.80
2017-04-02T19:52:41.929Z,42.20
2017-04-02T19:53:39.726Z,42.20
2017-04-02T19:54:37.501Z,42.10
2017-04-02T19:55:35.302Z,42.00
2017-04-02T19:56:33.173Z,42.00
2017-04-02T19:57:30.965Z,42.20
2017-04-02T19:58:28.745Z,42.30
2017-04-02T19:59:26.555Z,42.20
2017-04-02T20:00:24.398Z,42.50
2017-04-02T20:01:22.214Z,42.30
2017-04-02T20:02:22.025Z,42.20
2017-04-02T20:03:19.838Z,42.40
2017-04-02T20:04:17.638Z,42.30
2017-04-02T20:05:15.434Z,42.30
2017-04-02T20:06:13.197Z,42.30
2017-04-02T20:07:10.997Z,42.40
2017-04-02T20:08:08.793Z,42.60
2017-04-02T20:09:06.580Z,42.60
2017-04-02T20:10:05.107Z,42.60
2017-04-02T20:11:02.944Z,43.10
2017-04-02T20:12:00.761Z,42.40
2017-04-02T20:12:58.554Z,42.30
2017-04-02T20:13:56.369Z,42.20
2017-04-02T20:14:54.163Z,42.30
2017-04-02T20:15:51.937Z,42.00
2017-04-02T20:16:49.727Z,42.30
2017-04-02T20:17:47.521Z,42.10
2017-04-02T20:18:45.302Z,42.20
2017-04-02T20:19:43.183Z,42.30
2017-04-02T20:20:41.076Z,42.40
2017-04-02T20:21:38.888Z,42.30
2017-04-02T20:22:36.678Z,42.30
2017-04-02T20:23:34.643Z,42.40
2017-04-02T20:24:33.341Z,42.30
2017-04-02T20:25:32.423Z,42.20
2017-04-02T20:26:31.456Z,42.10
2017-04-02T20:27:29.265Z,42.10
2017-04-02T20:28:27.079Z,42.00
2017-04-02T20:29:25.121Z,42.00
2017-04-02T20:30:22.907Z,41.90
2017-04-02T20:31:20.718Z,41.90
2017-04-02T20:32:18.505Z,41.90
2017-04-02T20:33:16.387Z,41.90
2017-04-02T20:34:14.172Z,42.00
2017-04-02T20:35:11.973Z,42.00
2017-04-02T20:36:09.793Z,42.10
2017-04-02T20:37:07.625Z,42.10
2017-04-02T20:38:05.747Z,42.10
2017-04-02T20:39:04.178Z,42.20
2017-04-02T20:40:01.960Z,42.10
2017-04-02T20:40:59.851Z,42.10
2017-04-02T20:42:56.176Z,42.00
2017-04-02T20:43:53.963Z,42.00
2017-04-02T20:44:51.801Z,42.00
2017-04-02T20:45:49.602Z,42.00
2017-04-02T20:46:47.392Z,42.00
2017-04-02T20:47:45.209Z,42.00
2017-04-02T20:48:42.995Z,42.10
2017-04-02T20:49:40.781Z,42.10
2017-04-02T20:50:38.570Z,42.00
2017-04-02T20:51:36.378Z,41.90
2017-04-02T20:52:34.922Z,42.00
2017-04-02T20:53:32.756Z,42.00
2017-04-02T20:54:30.547Z,42.10
2017-04-02T20:55:28.346Z,42.10
2017-04-02T20:56:26.160Z,42.10
2017-04-02T20:57:24.749Z,41.90
2017-04-02T20:58:23.118Z,41.90
2017-04-02T20:59:21.153Z,42.10
2017-04-02T21:00:19.943Z,41.90
2017-04-02T21:01:17.721Z,42.00
2017-04-02T21:02:15.525Z,42.00
2017-04-02T21:03:13.289Z,42.20
2017-04-02T21:04:11.061Z,42.00
2017-04-02T21:05:08.833Z,42.00
2017-04-02T21:06:06.635Z,42.00
2017-04-02T21:07:04.448Z,42.10
2017-04-02T21:08:02.276Z,42.00
2017-04-02T21:09:00.061Z,42.00
2017-04-02T21:09:57.848Z,42.10
2017-04-02T21:10:55.638Z,42.00
2017-04-02T21:11:53.409Z,42.10
2017-04-02T21:12:51.211Z,42.10
2017-04-02T21:13:49.022Z,42.20
2017-04-02T21:14:46.821Z,42.00
2017-04-02T21:15:44.589Z,42.00
2017-04-02T21:16:42.650Z,42.10
2017-04-02T21:17:40.434Z,41.90
2017-04-02T21:18:38.249Z,41.90
2017-04-02T21:19:36.057Z,42.00
2017-04-02T21:21:32.413Z,42.10
2017-04-02T21:22:30.242Z,42.10
2017-04-02T21:23:28.054Z,42.00
2017-04-02T21:24:25.897Z,41.90
2017-04-02T21:25:23.714Z,41.90
2017-04-02T21:26:21.489Z,41.80
2017-04-02T21:27:19.281Z,42.00
2017-04-02T21:28:17.077Z,42.00
2017-04-02T21:29:15.593Z,42.00
2017-04-02T21:30:13.405Z,42.10
2017-04-02T21:31:11.204Z,42.10
2017-04-02T21:32:09.074Z,42.10
2017-04-02T21:33:06.926Z,42.10
2017-04-02T21:34:04.709Z,42.10
2017-04-02T21:35:02.502Z,42.20
2017-04-02T21:36:00.302Z,42.30
2017-04-02T21:36:58.825Z,42.30
2017-04-02T21:37:56.589Z,42.10
2017-04-02T21:38:54.421Z,42.20
2017-04-02T21:39:52.191Z,42.10
2017-04-02T21:40:50.745Z,42.00
2017-04-02T21:41:48.530Z,42.10
2017-04-02T21:42:46.326Z,42.10
2017-04-02T21:43:44.117Z,42.20
2017-04-02T21:44:42.000Z,42.20
2017-04-02T21:45:39.826Z,42.10
2017-04-02T21:46:37.712Z,42.20
2017-04-02T21:47:35.533Z,42.30
2017-04-02T21:48:33.342Z,42.30
2017-04-02T21:49:31.138Z,42.30
2017-04-02T21:50:29.014Z,42.90
2017-04-02T21:51:26.877Z,42.40
2017-04-02T21:52:24.661Z,42.30
2017-04-02T21:53:22.485Z,42.30
2017-04-02T21:54:20.290Z,42.40
2017-04-02T21:55:18.073Z,42.10
2017-04-02T21:56:15.867Z,42.00
2017-04-02T21:57:13.699Z,42.00
2017-04-02T21:58:11.489Z,42.10
2017-04-02T21:59:09.275Z,42.10
2017-04-02T22:00:07.060Z,42.10
2017-04-02T22:01:04.940Z,42.10
2017-04-02T22:02:02.833Z,42.10
2017-04-02T22:03:01.370Z,42.10
2017-04-02T22:03:59.153Z,42.20
2017-04-02T22:04:57.157Z,42.20
2017-04-02T22:05:54.958Z,42.20
2017-04-02T22:06:52.806Z,42.10
2017-04-02T22:07:50.668Z,42.00
2017-04-02T22:08:48.465Z,42.00
2017-04-02T22:09:46.254Z,42.10
2017-04-02T22:10:44.011Z,42.10
2017-04-02T22:11:41.888Z,42.80
2017-04-02T22:12:39.727Z,42.40
2017-04-02T22:13:37.522Z,42.20
2017-04-02T22:14:35.317Z,42.30
2017-04-02T22:15:33.854Z,42.20
2017-04-02T22:16:31.641Z,42.30
2017-04-02T22:17:29.421Z,42.30
2017-04-02T22:18:27.230Z,42.30
2017-04-02T22:19:25.071Z,42.10
2017-04-02T22:20:22.841Z,42.30
2017-04-02T22:21:20.675Z,42.30
2017-04-02T22:22:18.478Z,42.40
2017-04-02T22:23:16.269Z,42.20
2017-04-02T22:24:14.065Z,42.30
2017-04-02T22:25:11.843Z,42.30
2017-04-02T22:26:10.379Z,42.20
2017-04-02T22:27:08.162Z,42.20
2017-04-02T22:28:06.029Z,42.30
2017-04-02T22:29:03.852Z,42.20
2017-04-02T22:30:01.653Z,42.10
2017-04-02T22:30:59.469Z,42.20
2017-04-02T22:31:57.302Z,42.20
2017-04-02T22:32:55.081Z,42.10
2017-04-02T22:33:52.860Z,42.10
2017-04-02T22:34:50.660Z,42.20
2017-04-02T22:35:48.437Z,42.40
2017-04-02T22:36:46.271Z,42.40
2017-04-02T22:37:44.058Z,42.30
2017-04-02T22:38:41.842Z,42.40
2017-04-02T22:39:39.633Z,42.30
2017-04-02T22:40:37.413Z,42.30
2017-04-02T22:41:35.211Z,42.10
2017-04-02T22:42:32.980Z,44.00
2017-04-02T22:43:31.521Z,45.50
2017-04-02T22:44:29.286Z,44.80
2017-04-02T22:45:27.070Z,44.60
2017-04-02T22:46:24.857Z,44.40
2017-04-02T22:47:22.641Z,43.90
2017-04-02T22:48:20.417Z,43.50
2017-04-02T22:49:18.180Z,43.40
2017-04-02T22:50:15.966Z,43.10
2017-04-02T22:51:13.753Z,42.90
2017-04-02T22:52:11.621Z,42.70
2017-04-02T22:53:09.404Z,42.60
2017-04-02T22:54:07.225Z,42.50
2017-04-02T22:55:04.997Z,42.40
2017-04-02T22:56:02.796Z,42.40
2017-04-02T22:57:00.581Z,42.20
2017-04-02T22:57:58.350Z,42.10
2017-04-02T22:58:56.165Z,42.10
2017-04-02T22:59:53.949Z,42.10
2017-04-02T23:00:51.749Z,42.00
2017-04-02T23:01:49.530Z,41.90
2017-04-02T23:02:47.315Z,41.70
2017-04-02T23:03:45.112Z,41.60
2017-04-02T23:04:42.870Z,41.60
2017-04-02T23:05:40.645Z,41.60
2017-04-02T23:06:39.173Z,41.40
2017-04-02T23:07:36.953Z,41.40
2017-04-02T23:08:34.833Z,41.40
2017-04-02T23:09:32.614Z,41.40
2017-04-02T23:10:30.401Z,41.30
2017-04-02T23:11:28.177Z,41.30
2017-04-02T23:12:25.953Z,41.20
2017-04-02T23:13:23.776Z,41.20
2017-04-02T23:14:22.297Z,41.10
2017-04-02T23:15:20.335Z,41.10
2017-04-02T23:16:18.137Z,41.10
2017-04-02T23:17:15.918Z,41.10
2017-04-02T23:18:13.752Z,41.00
2017-04-02T23:19:11.570Z,41.00
2017-04-02T23:20:09.374Z,41.00
2017-04-02T23:21:07.195Z,40.90
2017-04-02T23:22:04.962Z,40.90
2017-04-02T23:23:02.785Z,40.90
2017-04-02T23:24:00.600Z,40.90
2017-04-02T23:24:58.460Z,40.80
2017-04-02T23:25:56.253Z,40.90
2017-04-02T23:26:54.028Z,40.80
2017-04-02T23:27:52.566Z,40.80
2017-04-02T23:28:50.366Z,40.80
2017-04-02T23:29:48.148Z,40.80
2017-04-02T23:30:45.941Z,40.70
2017-04-02T23:31:43.738Z,40.70
2017-04-02T23:32:41.547Z,40.70
2017-04-02T23:33:39.344Z,40.70
2017-04-02T23:34:37.127Z,40.60
2017-04-02T23:35:34.904Z,40.70
2017-04-02T23:36:33.418Z,40.60
2017-04-02T23:37:31.207Z,40.70
2017-04-02T23:38:28.974Z,40.60
2017-04-02T23:39:27.494Z,40.60
2017-04-02T23:40:25.287Z,40.60
2017-04-02T23:41:23.053Z,40.60
2017-04-02T23:42:20.826Z,40.60
2017-04-02T23:43:18.620Z,40.60
2017-04-02T23:44:16.406Z,40.60
2017-04-02T23:45:14.190Z,40.50
2017-04-02T23:46:11.966Z,41.10
2017-04-02T23:47:09.721Z,40.50
2017-04-02T23:48:07.491Z,40.50
2017-04-02T23:49:05.267Z,40.50
2017-04-02T23:50:03.117Z,41.10
2017-04-02T23:51:00.921Z,40.50
2017-04-02T23:51:58.721Z,40.80
2017-04-02T23:52:56.501Z,40.50
2017-04-02T23:53:54.305Z,40.50
2017-04-02T23:54:52.128Z,40.50
2017-04-02T23:55:49.917Z,40.50
2017-04-02T23:56:47.728Z,40.50
2017-04-02T23:57:45.525Z,40.50
2017-04-02T23:58:43.326Z,40.50
2017-04-02T23:59:41.137Z,40.50
